YOD weather

CFB Cold Lake
Cold Lake, Alberta, Canada

Public forecast

Using degrees Celsius for public forecast. Weather courtesy of forecast.io.

METAR (pilot weather report)

Retrieved 2019/04/20 20:00 UTC (19 minutes ago):

CYOD 202000Z 31016KT 15SM VCSH BKN065 12/M05 A2980 RMK CU5 SLP110

TAF (pilot weather forecast)

Retrieved 2019/04/20 18:42 UTC (2 hours ago):

TAF TAF CYOD 201738Z 2018/2118 28012G22KT P6SM SCT090 TEMPO 2019/2023 P6SM VCSH BKN070 FM202300 32012G22KT P6SM SCT060 TEMPO 2023/2108 P6SM VCSH BKN060 BECMG 2100/2102 30008KT FM210800 27008KT P6SM SCT080 RMK NXT FCST BY 210000Z